createdAt,value
2018-06-13T00:03:07.497Z,22.4
2018-06-13T00:13:06.451Z,22.4
2018-06-13T00:23:05.970Z,22.3
2018-06-13T00:33:04.925Z,22.2
2018-06-13T00:43:04.159Z,22.1
2018-06-13T00:53:03.449Z,22
2018-06-13T01:03:02.633Z,21.9
2018-06-13T01:13:01.869Z,21.8
2018-06-13T01:23:01.125Z,21.7
2018-06-13T01:33:00.346Z,21.6
2018-06-13T01:42:59.585Z,21.5
2018-06-13T01:52:58.813Z,21.4
2018-06-13T02:02:58.050Z,21.3
2018-06-13T02:12:57.284Z,21.3
2018-06-13T02:22:56.522Z,21.2
2018-06-13T02:32:55.757Z,21.2
2018-06-13T02:42:55.044Z,21.2
2018-06-13T02:52:54.512Z,21.1
2018-06-13T03:02:53.476Z,21.4
2018-06-13T03:12:52.708Z,21.8
2018-06-13T03:22:51.998Z,22.1
2018-06-13T03:32:51.184Z,22.3
2018-06-13T03:42:50.704Z,22.5
2018-06-13T03:52:49.657Z,22.7
2018-06-13T04:02:48.903Z,22.9
2018-06-13T04:12:48.133Z,23.1
2018-06-13T04:22:47.376Z,23.3
2018-06-13T04:32:46.611Z,23.7
2018-06-13T04:42:45.852Z,24
2018-06-13T04:52:45.090Z,24.4
2018-06-13T05:02:44.320Z,24.6
2018-06-13T05:12:43.886Z,24.9
2018-06-13T05:22:42.799Z,25.1
2018-06-13T05:32:42.112Z,25.3
2018-06-13T05:42:41.266Z,25.5
2018-06-13T05:52:40.554Z,25.6
2018-06-13T06:02:39.746Z,25.9
2018-06-13T06:12:38.976Z,26.1
2018-06-13T06:22:38.213Z,26.4
2018-06-13T06:32:37.501Z,26.6
2018-06-13T06:42:36.690Z,26.9
2018-06-13T06:52:35.923Z,27
2018-06-13T07:02:35.484Z,27.1
2018-06-13T07:12:34.400Z,27.1
2018-06-13T07:22:33.634Z,27.1
2018-06-13T07:32:32.874Z,27.1
2018-06-13T07:42:32.112Z,27.3
2018-06-13T07:52:31.627Z,27.3
2018-06-13T08:02:30.582Z,27.1
2018-06-13T08:12:30.105Z,27.2
2018-06-13T08:22:29.065Z,27.4
2018-06-13T08:32:28.297Z,27.6
2018-06-13T08:42:27.530Z,27.8
2018-06-13T08:52:26.765Z,27.8
2018-06-13T09:02:26.003Z,28
2018-06-13T09:12:25.530Z,28.1
2018-06-13T09:22:24.794Z,28.1
2018-06-13T09:32:23.766Z,27.9
2018-06-13T09:42:23.007Z,27.9
2018-06-13T09:52:22.192Z,27.6
2018-06-13T10:02:21.702Z,27.5
2018-06-13T10:12:20.659Z,27.4
2018-06-13T10:22:20.179Z,27.4
2018-06-13T10:32:19.134Z,27.5
2018-06-13T10:42:18.370Z,27.6
2018-06-13T10:52:17.613Z,27.8
2018-06-13T11:02:16.846Z,27.9
2018-06-13T11:12:16.079Z,28.2
2018-06-13T11:22:15.322Z,28.4
2018-06-13T11:32:14.551Z,28.3
2018-06-13T11:42:13.799Z,28.1
2018-06-13T11:52:13.027Z,27.9
2018-06-13T12:02:12.265Z,27.4
2018-06-13T12:12:11.606Z,26.8
2018-06-13T12:22:10.737Z,26.3
2018-06-13T12:32:09.980Z,26.1
2018-06-13T12:42:09.217Z,25.8
2018-06-13T12:52:08.456Z,25.6
2018-06-13T13:02:07.695Z,25.4
2018-06-13T13:12:06.924Z,25.4
2018-06-13T13:22:06.161Z,25.4
2018-06-13T13:32:05.402Z,25.4
2018-06-13T13:42:04.635Z,25.4
2018-06-13T13:52:03.925Z,25.3
2018-06-13T14:02:03.114Z,25
2018-06-13T14:12:02.625Z,24.8
2018-06-13T14:22:01.601Z,24.8
2018-06-13T14:32:00.826Z,24.9
2018-06-13T14:42:00.342Z,25.1
2018-06-13T14:51:59.302Z,25.1
2018-06-13T15:01:58.584Z,25.2
2018-06-13T15:11:57.768Z,25.4
2018-06-13T15:21:57.004Z,25.5
2018-06-13T15:31:56.242Z,25.6
2018-06-13T15:41:55.488Z,25.8
2018-06-13T15:51:54.722Z,25.8
2018-06-13T16:01:54.040Z,25.8
2018-06-13T16:11:53.477Z,25.8
2018-06-13T16:21:52.438Z,25.8
2018-06-13T16:31:51.688Z,25.8
2018-06-13T16:41:50.920Z,25.3
2018-06-13T16:51:50.161Z,23.9
2018-06-13T17:01:49.677Z,23.4
2018-06-13T17:11:48.642Z,23.5
2018-06-13T17:21:47.895Z,23.7
2018-06-13T17:31:47.130Z,23.8
2018-06-13T17:41:46.450Z,23.8
2018-06-13T17:51:45.604Z,23.8
2018-06-13T18:01:44.843Z,23.8
2018-06-13T18:11:44.366Z,23.9
2018-06-13T18:21:43.324Z,23.6
2018-06-13T18:31:42.566Z,23.2
2018-06-13T18:41:41.808Z,23
2018-06-13T18:51:41.046Z,22.8
2018-06-13T19:01:40.292Z,22.7
2018-06-13T19:11:39.529Z,22.5
2018-06-13T19:21:38.782Z,22.3
2018-06-13T19:31:38.010Z,22.1
2018-06-13T19:41:37.262Z,22.1
2018-06-13T19:51:36.492Z,22.1
2018-06-13T20:01:35.727Z,21.9
2018-06-13T20:11:34.967Z,21.9
2018-06-13T20:21:34.538Z,21.9
2018-06-13T20:31:33.785Z,21.9
2018-06-13T20:41:32.685Z,21.9
2018-06-13T20:51:32.051Z,21.9
2018-06-13T21:01:31.441Z,21.9
2018-06-13T21:11:30.673Z,21.9
2018-06-13T21:21:29.632Z,21.9
2018-06-13T21:31:28.866Z,21.9
2018-06-13T21:41:28.386Z,21.9
2018-06-13T21:51:27.339Z,21.9
2018-06-13T22:01:26.861Z,21.8
2018-06-13T22:11:26.092Z,21.6
2018-06-13T22:21:25.338Z,21.4
2018-06-13T22:31:24.284Z,21.3
2018-06-13T22:41:23.520Z,21.3
2018-06-13T22:51:22.755Z,21.3
2018-06-13T23:01:21.998Z,21.3
2018-06-13T23:11:36.134Z,21.3
2018-06-13T23:21:20.467Z,21.3
2018-06-13T23:31:19.751Z,21.3
2018-06-13T23:41:18.944Z,21.3
2018-06-13T23:51:18.169Z,21.4
